หน้าหลัก
METAR-TAF:

METAR-TAF

ท่าอากาศยาน :

ท่าอากาศยานนานาชาติเตินเซินเญิ้ต

นครโฮจิมินห์, เวียดนาม

ละติจูด: 10-49N, ลองจิจูด: 106-40E, ความสูง: 19 ม.

การสังเกตสภาพอากาศปัจจุบัน

รายงานได้ทำขึ้นเมื่อ 40 นาทีที่แล้ว ณ เวลา 22:30 UTC
ลม 6 นอตจากตะวันตก
อุณหภูมิ 28°C
ความชื้น 89%
ความกดอากาศ 1008 hPa
ทัศนวิสัย 10 กม. หรือมากกว่า
มีเมฆเป็นส่วนมากเว้นเป็นระยะที่ความสูง 2000 ฟุต

METAR: VVTS 182230Z 27006KT 9999 BKN020 28/26 Q1008 NOSIG

เวลา: 06:10 (23:10 UTC)

การพยากรณ์

รายงานได้ทำขึ้นเมื่อ 6 ชั่วโมงและ 10 นาทีที่แล้ว ณ เวลา 17:00 UTC
การพยากรณ์มีผลตั้งแต่วันที่ 18 ณ เวลา 18 UTC จนถึงวันที่ 19 ณ เวลา 24 UTC
ลม 8 นอตจากใต้
ทัศนวิสัย 10 กม. หรือมากกว่า
มีเมฆกระจายเป็นบางส่วนที่ความสูง 1700 ฟุต

TAF: VVTS 181700Z 1818/1924 17008KT 9999 SCT017

สังเกตการณ์สภาพอากาศและพยากรณ์อากาศของสนามบินมากกว่า 4000 แห่ง (รายงาน METAR และ TAF).

สถานีที่ดูได้จะแสดงไว้ด้วยจุดสีเหลืองและสีแดงบนแผนที่.

เลื่อนเมาส์ไปเหนือจุดเพื่อดูชื่อสถานี.

แล้วคลิกเพื่อดูสังเกตการณ์และการพยากรณ์สภาพอากาศ.

ในการเปลี่ยนแผนที่: คลิกที่ปุ่มสีเขียวที่มีกากบาทสีดำเพื่อซูมเข้า; ที่ปุ่มสีเขียวที่มีขีดเพื่อซูมออก; หรือที่ลูกศรสีเขียวเพื่อไปยังแผนที่ที่อยู่ติดกัน.


METAR-TAF: